sensor_id;sensor_type;location;lat;lon;timestamp;P1;durP1;ratioP1;P2;durP2;ratioP2
15402;SDS011;7799;53.478;10.170;2023-04-24T00:00:47;3.60;;;3.40;;
15402;SDS011;7799;53.478;10.170;2023-04-24T00:03:13;3.60;;;3.30;;
15402;SDS011;7799;53.478;10.170;2023-04-24T00:05:40;3.60;;;3.30;;
15402;SDS011;7799;53.478;10.170;2023-04-24T00:08:07;3.90;;;3.60;;
15402;SDS011;7799;53.478;10.170;2023-04-24T00:10:33;3.67;;;3.37;;
15402;SDS011;7799;53.478;10.170;2023-04-24T00:13:00;2.90;;;2.70;;
15402;SDS011;7799;53.478;10.170;2023-04-24T00:15:27;2.63;;;2.43;;
15402;SDS011;7799;53.478;10.170;2023-04-24T00:17:55;2.70;;;2.50;;
15402;SDS011;7799;53.478;10.170;2023-04-24T00:20:21;3.03;;;2.77;;
15402;SDS011;7799;53.478;10.170;2023-04-24T00:22:50;3.20;;;3.00;;
15402;SDS011;7799;53.478;10.170;2023-04-24T00:25:16;3.27;;;3.03;;
15402;SDS011;7799;53.478;10.170;2023-04-24T00:27:43;3.47;;;3.17;;
15402;SDS011;7799;53.478;10.170;2023-04-24T00:30:10;3.30;;;3.10;;
15402;SDS011;7799;53.478;10.170;2023-04-24T00:32:37;3.07;;;2.87;;
15402;SDS011;7799;53.478;10.170;2023-04-24T00:35:05;3.30;;;3.10;;
15402;SDS011;7799;53.478;10.170;2023-04-24T00:37:32;2.83;;;2.63;;
15402;SDS011;7799;53.478;10.170;2023-04-24T00:39:59;3.20;;;3.00;;
15402;SDS011;7799;53.478;10.170;2023-04-24T00:42:26;4.30;;;3.90;;
15402;SDS011;7799;53.478;10.170;2023-04-24T00:44:53;3.80;;;3.50;;
15402;SDS011;7799;53.478;10.170;2023-04-24T00:47:19;4.67;;;4.27;;
15402;SDS011;7799;53.478;10.170;2023-04-24T00:49:47;4.50;;;4.10;;
15402;SDS011;7799;53.478;10.170;2023-04-24T00:52:15;4.23;;;3.93;;
15402;SDS011;7799;53.478;10.170;2023-04-24T00:54:42;4.40;;;4.10;;
15402;SDS011;7799;53.478;10.170;2023-04-24T00:57:09;4.73;;;3.97;;
15402;SDS011;7799;53.478;10.170;2023-04-24T00:59:36;4.80;;;4.30;;
15402;SDS011;7799;53.478;10.170;2023-04-24T01:02:04;3.93;;;3.63;;
15402;SDS011;7799;53.478;10.170;2023-04-24T01:04:31;3.80;;;3.50;;
15402;SDS011;7799;53.478;10.170;2023-04-24T01:06:57;3.73;;;3.20;;
15402;SDS011;7799;53.478;10.170;2023-04-24T01:09:26;4.20;;;3.80;;
15402;SDS011;7799;53.478;10.170;2023-04-24T01:11:53;4.00;;;3.70;;
15402;SDS011;7799;53.478;10.170;2023-04-24T01:14:20;3.87;;;3.57;;
15402;SDS011;7799;53.478;10.170;2023-04-24T01:16:48;3.77;;;3.47;;
15402;SDS011;7799;53.478;10.170;2023-04-24T01:19:15;3.67;;;3.03;;
15402;SDS011;7799;53.478;10.170;2023-04-24T01:21:43;3.80;;;3.43;;
15402;SDS011;7799;53.478;10.170;2023-04-24T01:24:12;3.10;;;2.90;;
15402;SDS011;7799;53.478;10.170;2023-04-24T01:26:41;3.10;;;2.90;;
15402;SDS011;7799;53.478;10.170;2023-04-24T01:29:07;3.37;;;3.07;;
15402;SDS011;7799;53.478;10.170;2023-04-24T01:31:35;3.07;;;2.60;;
15402;SDS011;7799;53.478;10.170;2023-04-24T01:34:02;2.90;;;2.70;;
15402;SDS011;7799;53.478;10.170;2023-04-24T01:36:29;2.70;;;2.50;;
15402;SDS011;7799;53.478;10.170;2023-04-24T01:38:57;2.80;;;2.60;;
15402;SDS011;7799;53.478;10.170;2023-04-24T01:41:26;3.03;;;2.80;;
15402;SDS011;7799;53.478;10.170;2023-04-24T01:43:53;3.10;;;2.90;;
15402;SDS011;7799;53.478;10.170;2023-04-24T01:46:20;2.23;;;2.07;;
15402;SDS011;7799;53.478;10.170;2023-04-24T01:48:46;2.43;;;2.10;;
15402;SDS011;7799;53.478;10.170;2023-04-24T01:51:13;2.63;;;2.43;;
15402;SDS011;7799;53.478;10.170;2023-04-24T01:53:40;2.33;;;2.13;;
15402;SDS011;7799;53.478;10.170;2023-04-24T01:56:08;2.03;;;1.93;;
15402;SDS011;7799;53.478;10.170;2023-04-24T01:58:36;2.20;;;2.10;;
15402;SDS011;7799;53.478;10.170;2023-04-24T02:01:03;2.00;;;1.90;;
15402;SDS011;7799;53.478;10.170;2023-04-24T02:03:29;2.47;;;2.20;;
15402;SDS011;7799;53.478;10.170;2023-04-24T02:05:57;2.30;;;2.10;;
15402;SDS011;7799;53.478;10.170;2023-04-24T02:08:24;2.60;;;2.40;;
15402;SDS011;7799;53.478;10.170;2023-04-24T02:10:51;1.83;;;1.73;;
15402;SDS011;7799;53.478;10.170;2023-04-24T02:13:18;1.80;;;1.70;;
15402;SDS011;7799;53.478;10.170;2023-04-24T02:15:46;2.53;;;2.33;;
15402;SDS011;7799;53.478;10.170;2023-04-24T02:18:12;2.13;;;2.00;;
15402;SDS011;7799;53.478;10.170;2023-04-24T02:20:40;2.10;;;2.00;;
15402;SDS011;7799;53.478;10.170;2023-04-24T02:23:07;1.77;;;1.67;;
15402;SDS011;7799;53.478;10.170;2023-04-24T02:25:33;1.80;;;1.70;;
15402;SDS011;7799;53.478;10.170;2023-04-24T02:28:00;2.23;;;1.80;;
15402;SDS011;7799;53.478;10.170;2023-04-24T02:30:29;2.00;;;1.90;;
15402;SDS011;7799;53.478;10.170;2023-04-24T02:32:57;2.10;;;2.00;;
15402;SDS011;7799;53.478;10.170;2023-04-24T02:35:23;1.93;;;1.83;;
15402;SDS011;7799;53.478;10.170;2023-04-24T02:37:50;1.73;;;1.50;;
15402;SDS011;7799;53.478;10.170;2023-04-24T02:40:16;1.50;;;1.40;;
15402;SDS011;7799;53.478;10.170;2023-04-24T02:42:43;1.20;;;1.10;;
15402;SDS011;7799;53.478;10.170;2023-04-24T02:45:10;1.40;;;1.30;;
15402;SDS011;7799;53.478;10.170;2023-04-24T02:47:37;1.60;;;1.50;;
15402;SDS011;7799;53.478;10.170;2023-04-24T02:50:05;1.70;;;1.60;;
15402;SDS011;7799;53.478;10.170;2023-04-24T02:52:33;1.10;;;1.10;;
15402;SDS011;7799;53.478;10.170;2023-04-24T02:55:00;1.60;;;1.50;;
15402;SDS011;7799;53.478;10.170;2023-04-24T02:57:26;1.30;;;1.20;;
15402;SDS011;7799;53.478;10.170;2023-04-24T02:59:53;0.97;;;0.93;;
15402;SDS011;7799;53.478;10.170;2023-04-24T03:02:20;1.00;;;1.00;;
15402;SDS011;7799;53.478;10.170;2023-04-24T03:04:46;1.40;;;1.30;;
15402;SDS011;7799;53.478;10.170;2023-04-24T03:07:15;1.40;;;1.30;;
15402;SDS011;7799;53.478;10.170;2023-04-24T03:09:42;2.37;;;1.40;;
15402;SDS011;7799;53.478;10.170;2023-04-24T03:12:08;1.53;;;1.43;;
15402;SDS011;7799;53.478;10.170;2023-04-24T03:14:35;1.53;;;1.40;;
15402;SDS011;7799;53.478;10.170;2023-04-24T03:17:02;1.50;;;1.40;;
15402;SDS011;7799;53.478;10.170;2023-04-24T03:19:28;2.67;;;1.20;;
15402;SDS011;7799;53.478;10.170;2023-04-24T03:22:03;1.33;;;1.23;;
15402;SDS011;7799;53.478;10.170;2023-04-24T03:24:32;1.30;;;1.20;;
15402;SDS011;7799;53.478;10.170;2023-04-24T03:26:59;1.50;;;1.40;;
15402;SDS011;7799;53.478;10.170;2023-04-24T03:29:42;1.07;;;1.07;;
15402;SDS011;7799;53.478;10.170;2023-04-24T03:32:10;1.30;;;1.30;;
15402;SDS011;7799;53.478;10.170;2023-04-24T03:34:37;1.30;;;1.27;;
15402;SDS011;7799;53.478;10.170;2023-04-24T03:37:05;1.60;;;1.50;;
15402;SDS011;7799;53.478;10.170;2023-04-24T03:39:35;1.27;;;1.20;;
15402;SDS011;7799;53.478;10.170;2023-04-24T03:42:02;1.70;;;1.60;;
15402;SDS011;7799;53.478;10.170;2023-04-24T03:44:40;1.30;;;1.20;;
15402;SDS011;7799;53.478;10.170;2023-04-24T03:47:07;1.40;;;1.30;;
15402;SDS011;7799;53.478;10.170;2023-04-24T03:49:35;1.63;;;1.30;;
15402;SDS011;7799;53.478;10.170;2023-04-24T03:52:03;0.90;;;0.90;;
15402;SDS011;7799;53.478;10.170;2023-04-24T03:54:29;1.50;;;1.40;;
15402;SDS011;7799;53.478;10.170;2023-04-24T03:56:57;1.23;;;1.13;;
15402;SDS011;7799;53.478;10.170;2023-04-24T03:59:26;1.40;;;1.30;;
15402;SDS011;7799;53.478;10.170;2023-04-24T04:02:07;1.03;;;1.03;;
15402;SDS011;7799;53.478;10.170;2023-04-24T04:04:34;0.93;;;0.93;;
15402;SDS011;7799;53.478;10.170;2023-04-24T04:07:00;0.90;;;0.90;;
15402;SDS011;7799;53.478;10.170;2023-04-24T04:09:28;1.20;;;1.20;;
15402;SDS011;7799;53.478;10.170;2023-04-24T04:11:54;1.40;;;1.30;;
15402;SDS011;7799;53.478;10.170;2023-04-24T04:14:22;1.50;;;1.40;;
15402;SDS011;7799;53.478;10.170;2023-04-24T04:16:49;1.40;;;1.30;;
15402;SDS011;7799;53.478;10.170;2023-04-24T04:19:19;1.03;;;1.03;;
15402;SDS011;7799;53.478;10.170;2023-04-24T04:21:45;1.10;;;1.10;;
15402;SDS011;7799;53.478;10.170;2023-04-24T04:24:24;0.93;;;0.93;;
15402;SDS011;7799;53.478;10.170;2023-04-24T04:26:51;0.80;;;0.80;;
15402;SDS011;7799;53.478;10.170;2023-04-24T04:29:27;0.90;;;0.90;;
15402;SDS011;7799;53.478;10.170;2023-04-24T04:31:54;0.90;;;0.90;;
15402;SDS011;7799;53.478;10.170;2023-04-24T04:34:21;1.13;;;1.13;;
15402;SDS011;7799;53.478;10.170;2023-04-24T04:36:49;1.00;;;1.00;;
15402;SDS011;7799;53.478;10.170;2023-04-24T04:39:35;0.97;;;0.97;;
15402;SDS011;7799;53.478;10.170;2023-04-24T04:42:09;0.90;;;0.90;;
15402;SDS011;7799;53.478;10.170;2023-04-24T04:44:41;0.90;;;0.90;;
15402;SDS011;7799;53.478;10.170;2023-04-24T04:47:12;0.90;;;0.90;;
15402;SDS011;7799;53.478;10.170;2023-04-24T04:49:40;0.70;;;0.70;;
15402;SDS011;7799;53.478;10.170;2023-04-24T04:52:14;0.80;;;0.80;;
15402;SDS011;7799;53.478;10.170;2023-04-24T04:54:42;0.70;;;0.70;;
15402;SDS011;7799;53.478;10.170;2023-04-24T04:57:10;0.70;;;0.70;;
15402;SDS011;7799;53.478;10.170;2023-04-24T04:59:37;0.97;;;0.97;;
15402;SDS011;7799;53.478;10.170;2023-04-24T05:02:10;0.80;;;0.80;;
15402;SDS011;7799;53.478;10.170;2023-04-24T05:04:37;0.70;;;0.70;;
15402;SDS011;7799;53.478;10.170;2023-04-24T05:07:04;0.70;;;0.70;;
15402;SDS011;7799;53.478;10.170;2023-04-24T05:09:33;0.60;;;0.60;;
15402;SDS011;7799;53.478;10.170;2023-04-24T05:12:03;0.80;;;0.80;;
15402;SDS011;7799;53.478;10.170;2023-04-24T05:14:34;0.97;;;0.80;;
15402;SDS011;7799;53.478;10.170;2023-04-24T05:17:01;1.10;;;1.10;;
15402;SDS011;7799;53.478;10.170;2023-04-24T05:19:30;1.13;;;1.07;;
15402;SDS011;7799;53.478;10.170;2023-04-24T05:22:01;1.00;;;1.00;;
15402;SDS011;7799;53.478;10.170;2023-04-24T05:24:29;1.03;;;1.03;;
15402;SDS011;7799;53.478;10.170;2023-04-24T05:27:14;1.27;;;1.20;;
15402;SDS011;7799;53.478;10.170;2023-04-24T05:29:41;1.30;;;1.30;;
15402;SDS011;7799;53.478;10.170;2023-04-24T05:32:08;1.20;;;1.17;;
15402;SDS011;7799;53.478;10.170;2023-04-24T05:34:36;1.40;;;1.30;;
15402;SDS011;7799;53.478;10.170;2023-04-24T05:37:03;1.20;;;1.20;;
15402;SDS011;7799;53.478;10.170;2023-04-24T05:39:33;1.30;;;1.20;;
15402;SDS011;7799;53.478;10.170;2023-04-24T05:42:00;1.23;;;1.13;;
15402;SDS011;7799;53.478;10.170;2023-04-24T05:44:27;1.50;;;1.40;;
15402;SDS011;7799;53.478;10.170;2023-04-24T05:46:53;1.00;;;1.00;;
15402;SDS011;7799;53.478;10.170;2023-04-24T05:49:21;1.40;;;1.30;;
15402;SDS011;7799;53.478;10.170;2023-04-24T05:51:49;1.50;;;1.40;;
15402;SDS011;7799;53.478;10.170;2023-04-24T05:54:16;1.10;;;1.10;;
15402;SDS011;7799;53.478;10.170;2023-04-24T05:56:43;1.00;;;1.00;;
15402;SDS011;7799;53.478;10.170;2023-04-24T05:59:13;1.10;;;1.10;;
15402;SDS011;7799;53.478;10.170;2023-04-24T06:01:40;1.27;;;1.17;;
15402;SDS011;7799;53.478;10.170;2023-04-24T06:04:13;1.23;;;1.23;;
15402;SDS011;7799;53.478;10.170;2023-04-24T06:06:39;1.00;;;1.00;;
15402;SDS011;7799;53.478;10.170;2023-04-24T06:09:08;1.10;;;1.10;;
15402;SDS011;7799;53.478;10.170;2023-04-24T06:11:34;1.27;;;1.10;;
15402;SDS011;7799;53.478;10.170;2023-04-24T06:14:02;1.20;;;1.20;;
15402;SDS011;7799;53.478;10.170;2023-04-24T06:16:38;0.90;;;0.90;;
15402;SDS011;7799;53.478;10.170;2023-04-24T06:19:14;1.03;;;1.03;;
15402;SDS011;7799;53.478;10.170;2023-04-24T06:21:41;1.20;;;1.00;;
15402;SDS011;7799;53.478;10.170;2023-04-24T06:24:09;1.10;;;1.10;;
15402;SDS011;7799;53.478;10.170;2023-04-24T06:26:35;1.30;;;1.20;;
15402;SDS011;7799;53.478;10.170;2023-04-24T06:29:02;1.07;;;0.97;;
15402;SDS011;7799;53.478;10.170;2023-04-24T06:31:29;1.37;;;1.20;;
15402;SDS011;7799;53.478;10.170;2023-04-24T06:33:55;1.30;;;1.20;;
15402;SDS011;7799;53.478;10.170;2023-04-24T06:36:23;1.27;;;1.17;;
15402;SDS011;7799;53.478;10.170;2023-04-24T06:38:49;1.63;;;1.53;;
15402;SDS011;7799;53.478;10.170;2023-04-24T06:41:17;1.47;;;1.37;;
15402;SDS011;7799;53.478;10.170;2023-04-24T06:43:44;1.50;;;1.20;;
15402;SDS011;7799;53.478;10.170;2023-04-24T06:46:11;1.50;;;1.40;;
15402;SDS011;7799;53.478;10.170;2023-04-24T06:48:38;1.63;;;1.10;;
15402;SDS011;7799;53.478;10.170;2023-04-24T06:51:05;1.40;;;1.30;;
15402;SDS011;7799;53.478;10.170;2023-04-24T06:53:31;1.40;;;1.30;;
15402;SDS011;7799;53.478;10.170;2023-04-24T06:55:58;1.33;;;1.20;;
15402;SDS011;7799;53.478;10.170;2023-04-24T06:58:26;1.40;;;1.30;;
15402;SDS011;7799;53.478;10.170;2023-04-24T07:00:53;1.20;;;1.10;;
15402;SDS011;7799;53.478;10.170;2023-04-24T07:03:19;1.47;;;1.37;;
15402;SDS011;7799;53.478;10.170;2023-04-24T07:05:46;1.20;;;1.10;;
15402;SDS011;7799;53.478;10.170;2023-04-24T07:08:14;1.50;;;1.40;;
15402;SDS011;7799;53.478;10.170;2023-04-24T07:10:42;1.30;;;1.20;;
15402;SDS011;7799;53.478;10.170;2023-04-24T07:13:08;1.40;;;1.30;;
15402;SDS011;7799;53.478;10.170;2023-04-24T07:15:36;1.53;;;1.43;;
15402;SDS011;7799;53.478;10.170;2023-04-24T07:18:04;1.70;;;1.60;;
15402;SDS011;7799;53.478;10.170;2023-04-24T07:20:30;1.80;;;1.70;;
15402;SDS011;7799;53.478;10.170;2023-04-24T07:22:58;1.90;;;1.80;;
15402;SDS011;7799;53.478;10.170;2023-04-24T07:25:24;3.43;;;1.80;;
15402;SDS011;7799;53.478;10.170;2023-04-24T07:27:51;2.07;;;1.90;;
15402;SDS011;7799;53.478;10.170;2023-04-24T07:30:19;2.20;;;2.00;;
15402;SDS011;7799;53.478;10.170;2023-04-24T07:32:47;1.67;;;1.57;;
15402;SDS011;7799;53.478;10.170;2023-04-24T07:35:14;1.60;;;1.50;;
15402;SDS011;7799;53.478;10.170;2023-04-24T07:37:41;1.50;;;1.40;;
15402;SDS011;7799;53.478;10.170;2023-04-24T07:40:11;1.50;;;1.40;;
15402;SDS011;7799;53.478;10.170;2023-04-24T07:42:37;1.60;;;1.50;;
15402;SDS011;7799;53.478;10.170;2023-04-24T07:45:05;2.20;;;1.90;;
15402;SDS011;7799;53.478;10.170;2023-04-24T07:47:32;2.00;;;1.80;;
15402;SDS011;7799;53.478;10.170;2023-04-24T07:50:00;2.17;;;2.03;;
15402;SDS011;7799;53.478;10.170;2023-04-24T07:52:27;2.03;;;1.83;;
15402;SDS011;7799;53.478;10.170;2023-04-24T07:54:56;1.70;;;1.60;;
15402;SDS011;7799;53.478;10.170;2023-04-24T07:57:25;1.73;;;1.63;;
15402;SDS011;7799;53.478;10.170;2023-04-24T07:59:52;1.80;;;1.70;;
15402;SDS011;7799;53.478;10.170;2023-04-24T08:02:18;1.80;;;1.70;;
15402;SDS011;7799;53.478;10.170;2023-04-24T08:04:46;1.80;;;1.70;;
15402;SDS011;7799;53.478;10.170;2023-04-24T08:07:14;1.53;;;1.43;;
15402;SDS011;7799;53.478;10.170;2023-04-24T08:09:42;1.80;;;1.70;;
15402;SDS011;7799;53.478;10.170;2023-04-24T08:12:08;1.67;;;1.57;;
15402;SDS011;7799;53.478;10.170;2023-04-24T08:14:35;1.60;;;1.50;;
15402;SDS011;7799;53.478;10.170;2023-04-24T08:17:02;1.90;;;1.80;;
15402;SDS011;7799;53.478;10.170;2023-04-24T08:19:28;1.77;;;1.67;;
15402;SDS011;7799;53.478;10.170;2023-04-24T08:21:55;2.10;;;2.00;;
15402;SDS011;7799;53.478;10.170;2023-04-24T08:24:23;2.30;;;2.20;;
15402;SDS011;7799;53.478;10.170;2023-04-24T08:26:50;2.57;;;2.37;;
15402;SDS011;7799;53.478;10.170;2023-04-24T08:29:19;3.10;;;2.80;;
15402;SDS011;7799;53.478;10.170;2023-04-24T08:31:45;3.20;;;3.00;;
15402;SDS011;7799;53.478;10.170;2023-04-24T08:34:12;3.00;;;2.80;;
15402;SDS011;7799;53.478;10.170;2023-04-24T08:36:39;3.40;;;3.20;;
15402;SDS011;7799;53.478;10.170;2023-04-24T08:39:06;2.73;;;2.60;;
15402;SDS011;7799;53.478;10.170;2023-04-24T08:41:35;2.87;;;2.67;;
15402;SDS011;7799;53.478;10.170;2023-04-24T08:44:03;2.80;;;2.60;;
15402;SDS011;7799;53.478;10.170;2023-04-24T08:46:29;2.90;;;2.70;;
15402;SDS011;7799;53.478;10.170;2023-04-24T08:48:56;2.87;;;2.67;;
15402;SDS011;7799;53.478;10.170;2023-04-24T08:51:24;2.90;;;2.70;;
15402;SDS011;7799;53.478;10.170;2023-04-24T08:53:53;3.17;;;2.87;;
15402;SDS011;7799;53.478;10.170;2023-04-24T08:56:20;3.57;;;3.27;;
15402;SDS011;7799;53.478;10.170;2023-04-24T08:58:50;3.20;;;3.00;;
15402;SDS011;7799;53.478;10.170;2023-04-24T09:01:16;2.87;;;2.67;;
15402;SDS011;7799;53.478;10.170;2023-04-24T09:03:44;3.47;;;3.20;;
15402;SDS011;7799;53.478;10.170;2023-04-24T09:06:11;3.53;;;3.33;;
15402;SDS011;7799;53.478;10.170;2023-04-24T09:08:38;2.90;;;2.70;;
15402;SDS011;7799;53.478;10.170;2023-04-24T09:11:05;2.50;;;2.30;;
15402;SDS011;7799;53.478;10.170;2023-04-24T09:13:32;2.80;;;2.60;;
15402;SDS011;7799;53.478;10.170;2023-04-24T09:16:00;3.03;;;2.70;;
15402;SDS011;7799;53.478;10.170;2023-04-24T09:18:27;2.37;;;2.27;;
15402;SDS011;7799;53.478;10.170;2023-04-24T09:20:56;2.90;;;2.70;;
15402;SDS011;7799;53.478;10.170;2023-04-24T09:23:25;2.20;;;2.10;;
15402;SDS011;7799;53.478;10.170;2023-04-24T09:25:53;2.57;;;2.37;;
15402;SDS011;7799;53.478;10.170;2023-04-24T09:28:22;2.97;;;2.77;;
15402;SDS011;7799;53.478;10.170;2023-04-24T09:31:03;3.60;;;3.40;;
15402;SDS011;7799;53.478;10.170;2023-04-24T09:33:31;3.90;;;3.70;;
15402;SDS011;7799;53.478;10.170;2023-04-24T09:35:57;3.60;;;3.30;;
15402;SDS011;7799;53.478;10.170;2023-04-24T09:38:30;3.60;;;3.30;;
15402;SDS011;7799;53.478;10.170;2023-04-24T09:40:58;3.30;;;3.10;;
15402;SDS011;7799;53.478;10.170;2023-04-24T09:43:26;3.17;;;2.90;;
15402;SDS011;7799;53.478;10.170;2023-04-24T09:45:54;3.30;;;3.10;;
15402;SDS011;7799;53.478;10.170;2023-04-24T09:48:30;3.43;;;3.17;;
15402;SDS011;7799;53.478;10.170;2023-04-24T09:50:57;3.77;;;3.47;;
15402;SDS011;7799;53.478;10.170;2023-04-24T09:53:24;3.87;;;3.57;;
15402;SDS011;7799;53.478;10.170;2023-04-24T09:55:51;3.07;;;2.87;;
15402;SDS011;7799;53.478;10.170;2023-04-24T09:58:18;3.10;;;2.80;;
15402;SDS011;7799;53.478;10.170;2023-04-24T10:00:53;3.20;;;3.00;;
15402;SDS011;7799;53.478;10.170;2023-04-24T10:03:20;3.30;;;3.00;;
15402;SDS011;7799;53.478;10.170;2023-04-24T10:05:48;3.50;;;3.20;;
15402;SDS011;7799;53.478;10.170;2023-04-24T10:08:14;3.17;;;2.93;;
15402;SDS011;7799;53.478;10.170;2023-04-24T10:10:41;3.10;;;2.90;;
15402;SDS011;7799;53.478;10.170;2023-04-24T10:13:09;4.37;;;4.03;;
15402;SDS011;7799;53.478;10.170;2023-04-24T10:15:36;3.47;;;3.27;;
15402;SDS011;7799;53.478;10.170;2023-04-24T10:18:04;3.30;;;3.10;;
15402;SDS011;7799;53.478;10.170;2023-04-24T10:20:31;3.10;;;2.83;;
15402;SDS011;7799;53.478;10.170;2023-04-24T10:23:00;3.20;;;3.00;;
15402;SDS011;7799;53.478;10.170;2023-04-24T10:25:27;3.80;;;3.50;;
15402;SDS011;7799;53.478;10.170;2023-04-24T10:27:55;3.97;;;3.63;;
15402;SDS011;7799;53.478;10.170;2023-04-24T10:30:25;5.30;;;4.80;;
15402;SDS011;7799;53.478;10.170;2023-04-24T10:32:52;4.53;;;4.20;;
15402;SDS011;7799;53.478;10.170;2023-04-24T10:35:19;4.57;;;4.13;;
15402;SDS011;7799;53.478;10.170;2023-04-24T10:37:48;4.60;;;4.30;;
15402;SDS011;7799;53.478;10.170;2023-04-24T10:40:18;5.03;;;4.63;;
15402;SDS011;7799;53.478;10.170;2023-04-24T10:42:51;5.60;;;5.00;;
15402;SDS011;7799;53.478;10.170;2023-04-24T10:45:19;5.37;;;4.97;;
15402;SDS011;7799;53.478;10.170;2023-04-24T10:47:55;4.50;;;4.20;;
15402;SDS011;7799;53.478;10.170;2023-04-24T10:50:23;5.50;;;5.00;;
15402;SDS011;7799;53.478;10.170;2023-04-24T10:52:50;5.23;;;4.63;;
15402;SDS011;7799;53.478;10.170;2023-04-24T10:58:10;5.83;;;5.33;;
15402;SDS011;7799;53.478;10.170;2023-04-24T11:00:37;5.70;;;5.30;;
15402;SDS011;7799;53.478;10.170;2023-04-24T11:03:05;5.13;;;4.70;;
15402;SDS011;7799;53.478;10.170;2023-04-24T11:05:48;4.90;;;4.50;;
15402;SDS011;7799;53.478;10.170;2023-04-24T11:08:21;5.70;;;5.10;;
15402;SDS011;7799;53.478;10.170;2023-04-24T11:10:55;5.87;;;5.33;;
15402;SDS011;7799;53.478;10.170;2023-04-24T11:13:23;6.70;;;6.20;;
15402;SDS011;7799;53.478;10.170;2023-04-24T11:18:39;5.83;;;5.33;;
15402;SDS011;7799;53.478;10.170;2023-04-24T11:21:10;4.87;;;4.47;;
15402;SDS011;7799;53.478;10.170;2023-04-24T11:23:37;4.70;;;4.30;;
15402;SDS011;7799;53.478;10.170;2023-04-24T11:26:12;4.00;;;3.70;;
15402;SDS011;7799;53.478;10.170;2023-04-24T11:28:46;4.67;;;4.27;;
15402;SDS011;7799;53.478;10.170;2023-04-24T11:34:07;5.50;;;5.10;;
15402;SDS011;7799;53.478;10.170;2023-04-24T11:36:34;5.60;;;5.10;;
15402;SDS011;7799;53.478;10.170;2023-04-24T11:39:01;4.67;;;4.30;;
15402;SDS011;7799;53.478;10.170;2023-04-24T11:41:30;4.60;;;4.20;;
15402;SDS011;7799;53.478;10.170;2023-04-24T11:43:56;4.60;;;4.20;;
15402;SDS011;7799;53.478;10.170;2023-04-24T11:46:26;4.60;;;4.20;;
15402;SDS011;7799;53.478;10.170;2023-04-24T11:48:53;4.40;;;4.10;;
15402;SDS011;7799;53.478;10.170;2023-04-24T11:51:20;3.57;;;3.30;;
15402;SDS011;7799;53.478;10.170;2023-04-24T11:53:46;3.50;;;3.23;;
15402;SDS011;7799;53.478;10.170;2023-04-24T11:56:16;3.97;;;3.67;;
15402;SDS011;7799;53.478;10.170;2023-04-24T11:58:45;3.67;;;3.37;;
15402;SDS011;7799;53.478;10.170;2023-04-24T12:01:12;3.67;;;3.37;;
15402;SDS011;7799;53.478;10.170;2023-04-24T12:03:38;3.70;;;3.40;;
15402;SDS011;7799;53.478;10.170;2023-04-24T12:06:08;3.23;;;3.03;;
15402;SDS011;7799;53.478;10.170;2023-04-24T12:08:36;3.40;;;3.10;;
15402;SDS011;7799;53.478;10.170;2023-04-24T12:11:04;2.63;;;2.43;;
15402;SDS011;7799;53.478;10.170;2023-04-24T12:13:32;2.70;;;2.50;;
15402;SDS011;7799;53.478;10.170;2023-04-24T12:16:00;2.33;;;2.03;;
15402;SDS011;7799;53.478;10.170;2023-04-24T12:18:28;2.50;;;2.30;;
15402;SDS011;7799;53.478;10.170;2023-04-24T12:20:55;3.27;;;2.97;;
15402;SDS011;7799;53.478;10.170;2023-04-24T12:23:33;3.83;;;3.53;;
15402;SDS011;7799;53.478;10.170;2023-04-24T12:26:01;3.83;;;3.37;;
15402;SDS011;7799;53.478;10.170;2023-04-24T12:28:34;3.10;;;2.90;;
15402;SDS011;7799;53.478;10.170;2023-04-24T12:31:02;3.33;;;3.07;;
15402;SDS011;7799;53.478;10.170;2023-04-24T12:33:32;3.67;;;3.37;;
15402;SDS011;7799;53.478;10.170;2023-04-24T12:35:59;3.60;;;3.30;;
15402;SDS011;7799;53.478;10.170;2023-04-24T12:38:27;3.43;;;3.13;;
15402;SDS011;7799;53.478;10.170;2023-04-24T12:41:01;4.47;;;4.07;;
15402;SDS011;7799;53.478;10.170;2023-04-24T12:43:29;4.20;;;3.80;;
15402;SDS011;7799;53.478;10.170;2023-04-24T12:45:55;3.67;;;3.37;;
15402;SDS011;7799;53.478;10.170;2023-04-24T12:48:25;3.63;;;3.33;;
15402;SDS011;7799;53.478;10.170;2023-04-24T12:50:52;3.33;;;3.07;;
15402;SDS011;7799;53.478;10.170;2023-04-24T12:53:19;3.20;;;3.00;;
15402;SDS011;7799;53.478;10.170;2023-04-24T12:55:45;3.23;;;2.87;;
15402;SDS011;7799;53.478;10.170;2023-04-24T12:58:17;2.60;;;2.40;;
15402;SDS011;7799;53.478;10.170;2023-04-24T13:00:45;2.13;;;2.03;;
15402;SDS011;7799;53.478;10.170;2023-04-24T13:03:12;2.20;;;2.10;;
15402;SDS011;7799;53.478;10.170;2023-04-24T13:05:40;1.70;;;1.60;;
15402;SDS011;7799;53.478;10.170;2023-04-24T13:08:07;1.70;;;1.60;;
15402;SDS011;7799;53.478;10.170;2023-04-24T13:10:34;1.73;;;1.63;;
15402;SDS011;7799;53.478;10.170;2023-04-24T13:13:01;2.23;;;1.90;;
15402;SDS011;7799;53.478;10.170;2023-04-24T13:15:27;2.30;;;2.20;;
15402;SDS011;7799;53.478;10.170;2023-04-24T13:17:54;2.30;;;2.10;;
15402;SDS011;7799;53.478;10.170;2023-04-24T13:20:21;2.40;;;2.20;;
15402;SDS011;7799;53.478;10.170;2023-04-24T13:22:49;2.40;;;2.20;;
15402;SDS011;7799;53.478;10.170;2023-04-24T13:25:15;2.90;;;2.70;;
15402;SDS011;7799;53.478;10.170;2023-04-24T13:27:43;3.07;;;2.63;;
15402;SDS011;7799;53.478;10.170;2023-04-24T13:30:10;2.43;;;2.30;;
15402;SDS011;7799;53.478;10.170;2023-04-24T13:32:37;2.70;;;2.50;;
15402;SDS011;7799;53.478;10.170;2023-04-24T13:35:04;2.70;;;2.50;;
15402;SDS011;7799;53.478;10.170;2023-04-24T13:37:31;2.47;;;2.30;;
15402;SDS011;7799;53.478;10.170;2023-04-24T13:39:59;3.20;;;3.00;;
15402;SDS011;7799;53.478;10.170;2023-04-24T13:42:26;3.10;;;2.90;;
15402;SDS011;7799;53.478;10.170;2023-04-24T13:44:53;3.20;;;2.90;;
15402;SDS011;7799;53.478;10.170;2023-04-24T13:47:20;2.70;;;2.50;;
15402;SDS011;7799;53.478;10.170;2023-04-24T13:49:47;2.57;;;2.37;;
15402;SDS011;7799;53.478;10.170;2023-04-24T13:52:13;2.40;;;2.30;;
15402;SDS011;7799;53.478;10.170;2023-04-24T13:54:40;2.00;;;1.90;;
15402;SDS011;7799;53.478;10.170;2023-04-24T13:57:08;2.20;;;2.10;;
15402;SDS011;7799;53.478;10.170;2023-04-24T13:59:35;1.80;;;1.70;;
15402;SDS011;7799;53.478;10.170;2023-04-24T14:02:02;2.37;;;2.17;;
15402;SDS011;7799;53.478;10.170;2023-04-24T14:04:28;1.90;;;1.70;;
15402;SDS011;7799;53.478;10.170;2023-04-24T14:06:55;1.70;;;1.60;;
15402;SDS011;7799;53.478;10.170;2023-04-24T14:09:22;1.70;;;1.50;;
15402;SDS011;7799;53.478;10.170;2023-04-24T14:11:49;1.70;;;1.60;;
15402;SDS011;7799;53.478;10.170;2023-04-24T14:14:17;1.70;;;1.60;;
15402;SDS011;7799;53.478;10.170;2023-04-24T14:16:43;1.70;;;1.60;;
15402;SDS011;7799;53.478;10.170;2023-04-24T14:19:10;1.20;;;1.20;;
15402;SDS011;7799;53.478;10.170;2023-04-24T14:21:37;1.50;;;1.40;;
15402;SDS011;7799;53.478;10.170;2023-04-24T14:24:03;2.10;;;1.63;;
15402;SDS011;7799;53.478;10.170;2023-04-24T14:26:30;1.63;;;1.53;;
15402;SDS011;7799;53.478;10.170;2023-04-24T14:28:57;1.70;;;1.60;;
15402;SDS011;7799;53.478;10.170;2023-04-24T14:31:26;1.90;;;1.80;;
15402;SDS011;7799;53.478;10.170;2023-04-24T14:33:52;2.07;;;1.70;;
15402;SDS011;7799;53.478;10.170;2023-04-24T14:36:19;2.07;;;1.97;;
15402;SDS011;7799;53.478;10.170;2023-04-24T14:38:46;1.70;;;1.60;;
15402;SDS011;7799;53.478;10.170;2023-04-24T14:41:12;1.60;;;1.50;;
15402;SDS011;7799;53.478;10.170;2023-04-24T14:43:39;1.87;;;1.70;;
15402;SDS011;7799;53.478;10.170;2023-04-24T14:46:06;1.90;;;1.80;;
15402;SDS011;7799;53.478;10.170;2023-04-24T14:48:34;1.77;;;1.67;;
15402;SDS011;7799;53.478;10.170;2023-04-24T14:51:00;2.50;;;2.27;;
15402;SDS011;7799;53.478;10.170;2023-04-24T14:53:27;2.53;;;2.33;;
15402;SDS011;7799;53.478;10.170;2023-04-24T14:55:54;2.63;;;2.47;;
15402;SDS011;7799;53.478;10.170;2023-04-24T14:58:20;2.83;;;2.63;;
15402;SDS011;7799;53.478;10.170;2023-04-24T15:00:47;2.37;;;2.17;;